• Join FlightAware (Why Join?)
  • Login
  • US Flag 
04:48PM EDT


 

Airport Tracker/Info


-or-


 

Live Flight TrackerFlight Track Log ✈ N674DJ ✈ 04-Sep-2013 ✈ KTEB - KSYR

Flight Track Log - Related Links

Times and Time Zones

All times are in EDT time to prevent confusion due to time zone crossing. See the N674DJ flight status page for this flight to view local times or setup timezone preferences in your user account.

Time Position Orientation Groundspeed Altitude Reporting Facility
EDT Latitude Longitude Course Direction KTS MPH feet Rate Location/Type
06:21PM 40.8333 -74.1000 252° West 177 204 1,200  Level New York TRACON
06:22PM 40.8167 -74.1667 252° West 235 270 1,500 1,260 Climbing New York TRACON
06:23PM 40.8167 -74.2500 270° West 244 281 3,600 2,520 Climbing New York TRACON
06:24PM 40.8167 -74.3500 270° West 261 300 6,600 2,940 Climbing New York TRACON
06:25PM 40.9000 -74.3500 360° North 272 313 9,500 1,260 Climbing New York TRACON
06:27PM 41.1094 -74.3456 North 319 367 11,100 960 Climbing New York Center
06:28PM 41.1592 -74.4281 309° West 298 343 12,900 1,800 Climbing New York Center
06:29PM 41.2117 -74.5411 302° West 311 358 14,800 1,680 Climbing New York Center
06:30PM 41.2608 -74.6322 306° West 340 391 16,300 1,500 Climbing New York Center
06:31PM 41.3281 -74.7411 309° West 347 399 17,800 1,260 Climbing New York Center
06:32PM 41.3753 -74.8214 308° West 353 406 18,900 1,200 Climbing New York Center
06:33PM 41.4422 -74.9333 309° West 353 406 20,300 1,320 Climbing New York Center
06:34PM 41.5072 -75.0369 310° West 358 412 21,600 840 Climbing New York Center
06:35PM 41.5722 -75.1436 309° West 358 412 22,000 180 Climbing New York Center
06:36PM 41.6486 -75.2736 308° West 383 441 22,000  Level New York Center
06:37PM 41.7211 -75.3925 309° West 403 464 22,000  Level New York Center
06:38PM 41.7892 -75.5086 308° West 408 470 22,000  Level New York Center
06:39PM 41.8575 -75.6219 309° West 408 470 22,000  Level New York Center
06:40PM 41.9256 -75.7383 308° West 408 470 22,000 -120 Level New York Center
06:41PM 41.9917 -75.8494 309° West 398 458 21,800 -900 Descending New York Center
06:42PM 42.0556 -75.9633 307° West 393 452 20,200 -1,860 Descending New York Center
06:43PM 42.1281 -76.0667 313° West 387 445 18,100 -2,040 Descending New York Center
06:44PM 42.2194 -76.1189 337° Northwest 357 411 16,200 -2,040 Descending New York Center
06:46PM 42.3511 -76.1181 360° North 367 422 13,500 -2,100 Descending Boston Center
06:47PM 42.4494 -76.1069 North 354 407 11,400 -1,320 Descending Boston Center
06:47PM 42.5333 -76.0978 North 333 383 11,000 -1,080 Descending Boston Center
06:49PM 42.6192 -76.0858 North 307 353 9,400 -1,740 Descending Boston Center
06:50PM 42.6986 -76.0736 North 261 300 7,300 -1,980 Descending Boston Center
06:51PM 42.7719 -76.0636 North 250 288 5,300 -1,920 Descending Boston Center
06:52PM 42.8453 -76.0539 North 245 282 3,500 -900 Descending Boston Center
06:53PM 42.9039 -76.0458 North 216 249 3,500 -420 Level Boston Center
06:54PM 42.9542 -76.0403 North 195 224 2,700 -840 Descending Boston Center
06:55PM 43.0103 -76.0436 358° North 186 214 2,000 -540 Descending Boston Center
06:56PM 43.0519 -76.0489 355° North 154 177 1,700 -420 Descending Boston Center
06:57PM 43.0931 -76.0628 346° North 146 168 1,200 -540 Descending Boston Center